No se requiere un especial cuidado respecto a la situación meteorológica.   -   No hay avisos

Informes METAR

 

LEZL - Sevilla, Spain
Distancia de la estación: ENE 8km
Actualización: 19/08/2018 07:00
Despejado
Despejado
 Viento de calm
Viento: Calma
Temperatura: 22°C
Rocío: 17°C
Humedad: 73%
Barómetro: 1015 hPa
Resumen: Despejado
Visibilidad: mayor de 10 km
2018/08/19 05:00 LEZL 190500Z 00000KT CAVOK 22/17 Q1015 NOSIG
LEMO - Morón, Spain
Distancia de la estación: SE 43km
Actualización: 18/08/2018 15:00
NOT Current
Despejado
Despejado
 Viento de ESE
Viento: ESE 11 km/h
Temperatura: 36°C
Rocío: 11°C
Humedad: 22%
Barómetro: 1014 hPa
Resumen: Despejado
Visibilidad: mayor de 10 km
2018/08/18 13:00 LEMO 181300Z 11006KT 050V190 CAVOK 36/11 Q1014 NOSIG
LEJR - Jeréz, Spain
Distancia de la estación: S 71km
Actualización: 19/08/2018 07:00
Despejado
Despejado
 Viento de NE
Viento: NE 11 km/h
Temperatura: 24°C
Rocío: 15°C
Humedad: 57%
Barómetro: 1014 hPa
Resumen: Despejado
Visibilidad: mayor de 10 km
2018/08/19 05:00 LEJR 190500Z 05006KT 010V080 CAVOK 24/15 Q1014
 
LERT - Rota, Spain
Distancia de la estación: SSO 89km
Actualización: 19/08/2018 07:00
Despejado
Despejado
 Viento de ENE
Viento: ENE 11 km/h
Temperatura: 23°C
Rocío: 15°C
Humedad: 61%
Barómetro: 1014 hPa
Resumen: Despejado
Visibilidad: mayor de 10 km
2018/08/19 05:00 LERT 190500Z 07006KT CAVOK 23/15 Q1014 NOSIG
LEMG - Málaga, Spain
Distancia de la estación: ESE 157km
Actualización: 19/08/2018 07:00
Parcialmente nuboso
Parcialmente nuboso
 Viento de variable
Viento: variable 2 km/h
Temperatura: 25°C
Rocío: 20°C
Humedad: 74%
Barómetro: 1017 hPa
Nubes: Parcialmente nuboso
Visibilidad: 10 km
Detalles de las nubes: Parcialmente nuboso 762 m
2018/08/19 05:00 LEMG 190500Z VRB01KT 9999 SCT025 25/20 Q1017 NOSIG
LEBA - Córdoba, Spain
Distancia de la estación: ENE 115km
Actualización: 19/08/2018 07:00
Despejado
Despejado
 Viento de calm
Viento: Calma
Temperatura: 21°C
Rocío: 15°C
Humedad: 69%
Barómetro: 1016 hPa
Nubes: Despejado
Visibilidad: 10 km
2018/08/19 05:00 LEBA 190500Z AUTO 00000KT 9999 NCD 21/15 Q1016
 
LEGR - Granada, Spain
Distancia de la estación: E 198km
Actualización: 19/08/2018 07:00
Despejado
Despejado
 Viento de SE
Viento: SE 6 km/h
Temperatura: 21°C
Rocío: 17°C
Humedad: 78%
Barómetro: 1019 hPa
Resumen: Despejado
Visibilidad: mayor de 10 km
2018/08/19 05:00 LEGR 190500Z 14003KT CAVOK 21/17 Q1019
LEAM - Almería, Spain
Distancia de la estación: E 326km
Actualización: 19/08/2018 07:00
Despejado
Despejado
 Viento de NE
Viento: NE 22 km/h
Temperatura: 26°C
Rocío: 18°C
Humedad: 61%
Barómetro: 1017 hPa
Resumen: Despejado
Visibilidad: mayor de 10 km
2018/08/19 05:00 LEAM 190500Z 04012KT CAVOK 26/18 Q1017
LEMD - Madrid/Barajas, Spain
Distancia de la estación: NNE 402km
Actualización: 19/08/2018 07:00
Poco nuboso
Poco nuboso
 Viento de NE
Viento: NE 6 km/h
Temperatura: 19°C
Rocío: 8°C
Humedad: 49%
Barómetro: 1021 hPa
Nubes: Poco nuboso
Visibilidad: 10 km
Detalles de las nubes: Poco nuboso 1280 m
2018/08/19 05:00 LEMD 190500Z 05003KT 020V080 9999 FEW042 19/08 Q1021 NOSIG
 
LEVD - Valladolid, Spain
Distancia de la estación: N 492km
Actualización: 19/08/2018 07:00
Despejado
Despejado
 Viento de NNE
Viento: NNE 7 km/h
Temperatura: 10°C
Sensación térmica: 9°C
Rocío: 9°C
Humedad: 94%
Barómetro: 1022 hPa
Resumen: Despejado
Visibilidad: mayor de 10 km
2018/08/19 05:00 LEVD 190500Z 03004KT 350V070 CAVOK 10/09 Q1022
LEBL - Barcelona, Spain
Distancia de la estación: NE 816km
Actualización: 19/08/2018 07:00
Poco nuboso
Poco nuboso
 Viento de NO
Viento: NO 17 km/h
Temperatura: 21°C
Rocío: 16°C
Humedad: 73%
Barómetro: 1019 hPa
Nubes: Poco nuboso
Visibilidad: 10 km
Detalles de las nubes: Poco nuboso 1676 m
2018/08/19 05:00 LEBL 190500Z 32009KT 9999 FEW055 21/16 Q1019 NOSIG
LEVC - Valencia, Spain
Distancia de la estación: ENE 535km
Actualización: 19/08/2018 07:00
Poco nuboso
Poco nuboso
 Viento de O
Viento: O 4 km/h
Temperatura: 21°C
Rocío: 19°C
Humedad: 88%
Barómetro: 1020 hPa
Nubes: Poco nuboso
Visibilidad: 10 km
Detalles de las nubes: Poco nuboso 762 m
2018/08/19 05:00 LEVC 190500Z 27002KT 9999 FEW025 21/19 Q1020 NOSIG